Latest Weather Observations for Hobart

IDT60801

Issued at 3:32 pm EDT Thursday 30 March 2017 (issued every 30 minutes, with the page automatically refreshed every 10 minutes)

About weather observations | Map of weather stations | Latest weather observations for TAS | Other Formats
Station Details ID: 094029 Name: HOBART (ELLERSLIE ROAD) Lat: -42.89 Lon: 147.33 Height: 50.5 m
Data from the previous 72 hours. | See also: Recent months at Hobart
Date/Time
EDT
Temp
°C
App
Temp
°C
Dew
Point
°C
Rel
Hum
%
Delta-T
°C
Wind Press
QNH
hPa
Press
MSL
hPa
Rain since
9am
mm
Dir  Spd
km/h
Gust
km/h
Spd
kts
Gust
kts
30/03:00pm 15.9 8.7 1.0 36 6.5 SW 28 37 15 20 1013.7 1013.6 0.0
30/02:30pm 14.0 6.4 3.7 50 4.7 SW 33 48 18 26 1013.5 1013.4 0.0
30/02:23pm 14.4 7.7 3.9 49 4.8 SW 28 48 15 26 1013.4 1013.3 0.0
30/02:00pm 16.3 9.0 2.3 39 6.3 SW 30 44 16 24 1013.3 1013.2 0.0
30/01:30pm 14.2 8.2 3.4 48 4.9 SSW 24 35 13 19 1013.1 1013.0 0.0
30/01:00pm 15.7 11.2 4.1 46 5.4 SSW 17 24 9 13 1013.0 1012.9 0.0
30/12:30pm 15.7 11.2 2.3 40 6.0 SW 15 28 8 15 1013.0 1012.9 0.0
30/12:00pm 14.4 10.4 2.8 45 5.2 WSW 13 20 7 11 1012.9 1012.8 0.0
30/11:30am 14.9 11.1 3.8 47 5.1 ENE 13 19 7 10 1012.8 1012.7 0.0
30/11:00am 14.0 10.8 3.1 48 4.9 SE 9 26 5 14 1012.5 1012.4 0.0
30/10:30am 14.1 11.0 3.5 49 4.8 ENE 9 15 5 8 1012.3 1012.2 0.0
30/10:00am 14.1 11.8 4.6 52 4.4 NNE 6 9 3 5 1011.9 1011.8 0.0
30/09:30am 12.9 8.5 4.6 57 3.8 NW 17 22 9 12 1011.5 1011.4 0.0
30/09:00am 11.8 8.5 4.8 62 3.2 NNW 11 17 6 9 1011.2 1011.1 4.8
30/08:30am 11.1 7.1 5.0 66 2.8 NW 15 26 8 14 1010.7 1010.6 4.8
30/08:00am 10.2 6.9 4.4 67 2.6 NNE 11 24 6 13 1009.9 1009.9 4.8
30/07:30am 9.9 7.0 4.5 69 2.4 NW 9 22 5 12 1008.9 1008.9 4.8
30/07:00am 10.1 6.0 4.5 68 2.5 NW 15 30 8 16 1008.5 1008.5 4.8
30/06:30am 10.0 3.4 4.4 68 2.5 NNW 28 37 15 20 1007.9 1007.9 4.8
30/06:00am 9.9 6.2 4.6 69 2.4 NW 13 22 7 12 1007.3 1007.3 4.8
30/05:30am 10.3 4.5 4.3 66 2.7 NW 24 35 13 19 1007.1 1007.1 4.8
30/05:00am 10.6 4.7 4.1 64 2.9 NNW 24 33 13 18 1006.7 1006.7 4.8
30/04:30am 10.3 6.1 4.0 65 2.8 NNW 15 24 8 13 1006.9 1006.9 4.8
30/04:00am 9.8 7.8 4.4 69 2.4 SSW 4 15 2 8 1005.9 1005.9 4.8
30/03:30am 10.6 6.1 4.4 65 2.8 N 17 24 9 13 1006.6 1006.6 4.8
30/03:00am 10.8 5.9 4.1 63 3.0 NNW 19 30 10 16 1006.1 1006.1 4.8
30/02:30am 10.9 6.5 4.5 64 2.9 N 17 26 9 14 1006.1 1006.1 4.8
30/02:00am 11.1 6.6 4.2 62 3.1 N 17 28 9 15 1005.8 1005.8 4.8
30/01:30am 11.1 5.7 4.7 64 2.9 NNW 22 35 12 19 1005.5 1005.5 4.8
30/01:00am 11.1 6.4 5.0 66 2.8 N 19 28 10 15 1005.1 1005.1 4.8
30/12:30am 11.3 5.2 4.7 64 3.0 NNW 26 39 14 21 1005.2 1005.2 4.8
30/12:00am 11.4 5.7 4.9 64 3.0 NNW 24 35 13 19 1005.0 1005.0 4.8
 
Date/Time
EDT
Temp
°C
App
Temp
°C
Dew
Point
°C
Rel
Hum
%
Delta-T
°C
Wind Press
QNH
hPa
Press
MSL
hPa
Rain since
9am
mm
Dir  Spd
km/h
Gust
km/h
Spd
kts
Gust
kts
29/11:30pm 11.7 5.9 4.5 61 3.3 NNW 24 39 13 21 1004.7 1004.7 4.8
29/11:00pm 11.5 5.4 4.7 63 3.1 NNW 26 39 14 21 1004.4 1004.4 4.8
29/10:30pm 11.3 5.3 5.2 66 2.8 NNW 26 39 14 21 1003.7 1003.7 4.8
29/10:16pm 11.3 4.9 5.2 66 2.8 NNW 28 46 15 25 1003.5 1003.5 4.8
29/10:00pm 11.3 5.0 5.5 67 2.7 NNW 28 41 15 22 1003.2 1003.2 4.8
29/09:30pm 11.6 5.2 5.1 64 3.0 N 28 41 15 22 1002.7 1002.6 4.8
29/09:00pm 12.0 4.6 5.1 62 3.2 NNW 33 57 18 31 1003.1 1003.0 4.8
29/08:43pm 11.1 5.0 6.5 73 2.2 NNW 28 46 15 25 1003.0 1002.9 4.8
29/08:30pm 10.7 6.4 6.9 77 1.8 N 19 33 10 18 1003.0 1002.9 4.8
29/08:00pm 10.8 5.7 7.5 80 1.6 N 24 39 13 21 1002.8 1002.7 4.6
29/07:30pm 12.6 9.9 7.5 71 2.5 S 11 13 6 7 1002.0 1001.9 4.4
29/07:00pm 12.5 10.8 8.5 76 2.0 W 7 13 4 7 1001.0 1000.9 4.4
29/06:30pm 12.2 6.3 9.0 81 1.6 SW 30 41 16 22 999.6 999.5 4.0
29/06:06pm 12.6 7.4 10.3 86 1.2 S 28 46 15 25 999.1 999.0 3.8
29/06:00pm 13.0 9.7 11.7 92 0.7 SSE 20 28 11 15 999.5 999.4 3.0
29/05:30pm 13.5 8.5 11.1 85 1.3 SE 28 35 15 19 998.7 998.6 0.8
29/05:05pm 14.7 9.2 9.3 70 2.8 SSE 28 46 15 25 998.3 998.2 0.0
29/05:00pm 14.6 8.4 9.4 71 2.7 SE 32 46 17 25 998.2 998.1 0.0
29/04:30pm 15.6 9.2 9.3 66 3.3 SSE 33 57 18 31 997.5 997.4 0.0
29/04:19pm 16.1 10.2 10.3 68 3.1 ESE 32 61 17 33 997.0 996.9 0.0
29/04:17pm 16.9 12.4 9.9 63 3.7 E 24 50 13 27 996.9 996.8 0.0
29/04:12pm 18.8 14.9 9.4 54 5.0 NNW 20 37 11 20 997.0 996.9 0.0
29/04:00pm 24.8 19.3 4.0 26 10.4 NW 22 37 12 20 996.6 996.5 0.0
29/03:30pm 25.4 17.9 3.4 24 10.8 NW 32 50 17 27 996.5 996.4 0.0
29/03:01pm 25.4 19.2 6.2 29 9.9 NW 28 52 15 28 996.5 996.4 0.0
29/03:00pm 25.4 19.7 6.5 30 9.9 NW 26 52 14 28 996.5 996.4 0.0
29/02:40pm 24.6 18.7 7.5 33 9.0 WNW 28 48 15 26 996.6 996.5 0.0
29/02:30pm 24.9 19.9 7.9 33 9.0 NW 24 41 13 22 996.6 996.5 0.0
29/02:00pm 24.9 18.1 7.9 33 9.1 NW 33 56 18 30 996.9 996.8 0.0
29/01:34pm 24.7 18.8 7.3 33 9.2 NW 28 46 15 25 997.2 997.1 0.0
29/01:30pm 25.4 19.1 7.4 31 9.5 NW 30 48 16 26 997.2 997.1 0.0
29/01:01pm 23.9 17.1 7.7 35 8.5 WNW 33 52 18 28 997.8 997.7 0.0
29/01:00pm 23.8 16.6 7.5 35 8.6 WNW 35 52 19 28 997.8 997.7 0.0
29/12:30pm 23.8 17.1 7.5 35 8.6 NW 32 56 17 30 998.4 998.3 0.0
29/12:00pm 24.1 17.5 7.7 35 8.7 NW 32 52 17 28 998.6 998.5 0.0
29/11:30am 23.2 15.2 7.4 36 8.3 NW 39 70 21 38 999.1 999.0 0.0
29/11:00am 22.5 14.8 6.9 36 8.1 NNW 37 56 20 30 999.4 999.3 0.0
29/10:30am 21.6 12.1 6.6 37 7.6 NNW 46 74 25 40 999.8 999.7 0.0
29/10:24am 21.6 12.6 6.6 37 7.6 NNW 43 74 23 40 999.8 999.7 0.0
29/10:00am 21.2 14.4 7.6 41 7.1 NNW 33 54 18 29 1000.3 1000.2 0.0
29/09:51am 20.6 14.7 7.5 42 6.7 NNW 28 48 15 26 1000.5 1000.4 0.0
29/09:30am 19.9 14.0 7.7 45 6.3 N 28 43 15 23 1000.7 1000.6 0.0
29/09:00am 19.0 13.9 7.7 48 5.8 N 24 35 13 19 1001.0 1000.9 0.0
29/08:30am 18.3 14.4 8.5 52 5.1 N 19 35 10 19 1000.9 1000.8 0.0
29/08:00am 16.7 14.3 8.8 59 4.1 N 11 19 6 10 1001.5 1001.4 0.0
29/07:30am 16.1 13.9 8.0 58 4.1 NE 9 15 5 8 1001.7 1001.6 0.0
29/07:00am 15.8 13.3 8.4 61 3.8 NNE 11 15 6 8 1002.1 1002.0 0.0
29/06:30am 16.5 12.0 7.1 53 4.7 N 20 28 11 15 1002.3 1002.2 0.0
29/06:00am 16.1 12.2 7.3 56 4.4 NNW 17 24 9 13 1002.4 1002.3 0.0
29/05:30am 15.5 12.8 7.3 58 4.1 NNW 11 19 6 10 1002.5 1002.4 0.0
29/05:00am 15.1 12.7 7.2 59 3.9 NW 9 17 5 9 1002.7 1002.6 0.0
29/04:30am 14.9 12.6 7.5 61 3.7 NW 9 15 5 8 1002.8 1002.7 0.0
29/04:00am 15.5 11.9 6.8 56 4.3 NW 15 19 8 10 1003.0 1002.9 0.0
29/03:30am 15.8 11.4 6.7 54 4.5 NNW 19 28 10 15 1003.5 1003.5 0.0
29/03:00am 16.3 12.3 6.6 52 4.8 NNW 17 30 9 16 1003.7 1003.7 0.0
29/02:30am 16.1 12.1 6.6 53 4.7 NNW 17 28 9 15 1004.0 1004.0 0.0
29/02:00am 16.2 11.8 6.4 52 4.8 NNW 19 26 10 14 1004.4 1004.4 0.0
29/01:30am 16.1 11.7 6.6 53 4.7 NNW 19 33 10 18 1004.6 1004.6 0.0
29/01:00am 16.3 11.8 6.8 53 4.7 NNW 20 32 11 17 1004.9 1004.9 0.0
29/12:30am 16.4 11.3 6.2 51 5.0 NNW 22 32 12 17 1005.1 1005.1 0.0
29/12:00am 16.6 11.9 6.2 50 5.1 NNW 20 30 11 16 1005.3 1005.3 0.0
 
Date/Time
EDT
Temp
°C
App
Temp
°C
Dew
Point
°C
Rel
Hum
%
Delta-T
°C
Wind Press
QNH
hPa
Press
MSL
hPa
Rain since
9am
mm
Dir  Spd
km/h
Gust
km/h
Spd
kts
Gust
kts
28/11:30pm 16.8 12.1 6.2 49 5.2 NNW 20 33 11 18 1005.3 1005.3 0.0
28/11:00pm 17.2 12.5 6.2 48 5.4 NNW 20 32 11 17 1005.7 1005.7 0.0
28/10:30pm 17.3 13.2 6.4 48 5.4 NNW 17 28 9 15 1005.7 1005.7 0.0
28/10:00pm 17.5 13.1 6.4 48 5.5 NNW 19 30 10 16 1006.0 1006.0 0.0
28/09:30pm 17.7 13.8 7.2 50 5.3 NNW 17 28 9 15 1006.2 1006.2 0.0
28/09:00pm 17.9 13.0 7.0 49 5.5 NNW 22 33 12 18 1006.0 1006.0 0.0
28/08:30pm 18.2 12.5 6.9 47 5.7 NNW 26 43 14 23 1005.9 1005.9 0.0
28/08:00pm 18.8 12.4 6.9 46 6.0 NNW 30 50 16 27 1005.7 1005.7 0.0
28/07:56pm 18.8 12.8 6.9 46 6.0 NNW 28 50 15 27 1005.6 1005.6 0.0
28/07:30pm 19.0 13.9 7.5 47 5.9 NW 24 43 13 23 1005.2 1005.2 0.0
28/07:00pm 19.3 13.8 7.4 46 6.1 NW 26 43 14 23 1004.9 1004.9 0.0
28/06:38pm 19.7 13.7 7.2 44 6.4 NNW 28 46 15 25 1004.7 1004.7 0.0
28/06:30pm 19.8 14.6 7.3 44 6.4 NNW 24 39 13 21 1004.7 1004.7 0.0
28/06:00pm 20.5 14.0 6.5 40 7.1 NW 30 48 16 26 1004.5 1004.5 0.0
28/05:30pm 21.1 14.4 7.4 41 7.1 NW 32 46 17 25 1004.6 1004.6 0.0
28/05:04pm 21.7 15.8 7.5 40 7.4 NW 28 46 15 25 1004.5 1004.5 0.0
28/05:00pm 21.6 15.3 7.3 39 7.4 NW 30 46 16 25 1004.4 1004.4 0.0
28/04:33pm 21.8 14.0 6.8 38 7.7 WNW 37 56 20 30 1004.5 1004.5 0.0
28/04:30pm 21.9 13.8 7.2 38 7.6 NW 39 56 21 30 1004.6 1004.6 0.0
28/04:00pm 22.6 15.3 7.0 36 8.1 NW 35 54 19 29 1004.3 1004.3 0.0
28/03:30pm 22.7 15.9 6.9 36 8.2 NW 32 52 17 28 1004.1 1004.1 0.0
28/03:00pm 23.1 16.8 7.2 36 8.3 NW 30 56 16 30 1004.0 1004.0 0.0
28/02:30pm 22.6 15.3 7.2 37 8.0 NW 35 57 19 31 1004.1 1004.1 0.0
28/02:00pm 22.0 15.4 7.7 39 7.5 NW 32 50 17 27 1004.4 1004.4 0.0
28/01:30pm 22.1 14.4 7.3 38 7.7 NW 37 65 20 35 1004.7 1004.7 0.0
28/01:00pm 21.2 13.5 7.3 40 7.2 NW 37 57 20 31 1005.0 1005.0 0.0
28/12:30pm 21.4 14.2 7.6 41 7.2 NW 35 54 19 29 1005.3 1005.3 0.0
28/12:00pm 20.8 13.7 8.0 43 6.7 NW 35 59 19 32 1005.5 1005.5 0.0
28/11:30am 20.2 12.6 7.6 44 6.5 NW 37 61 20 33 1005.6 1005.6 0.0
28/11:00am 19.9 13.2 8.0 46 6.2 NW 33 54 18 29 1005.8 1005.8 0.0
28/10:34am 19.8 13.9 7.3 44 6.4 NW 28 46 15 25 1005.9 1005.9 0.0
28/10:30am 19.6 13.7 7.5 45 6.2 NW 28 44 15 24 1005.9 1005.9 0.0
28/10:05am 19.0 13.0 6.9 45 6.1 NW 28 46 15 25 1006.1 1006.1 0.0
28/10:00am 19.1 13.9 7.1 45 6.1 NW 24 37 13 20 1006.1 1006.1 0.0
28/09:30am 18.0 13.5 6.3 46 5.8 NW 19 28 10 15 1006.0 1006.0 0.0
28/09:00am 16.9 12.3 6.6 50 5.1 NW 20 33 11 18 1006.1 1006.1 3.0
28/08:30am 15.6 12.6 7.9 60 3.9 NW 13 22 7 12 1006.0 1006.0 3.0
28/08:00am 13.9 10.9 7.9 67 3.0 NW 13 19 7 10 1005.8 1005.8 3.0
28/07:30am 12.9 11.1 7.8 71 2.5 WNW 7 11 4 6 1005.7 1005.7 3.0
28/07:00am 13.1 10.8 7.6 69 2.7 WSW 9 11 5 6 1005.4 1005.4 3.0
28/06:30am 13.2 11.2 7.3 67 2.9 WNW 7 11 4 6 1005.0 1005.0 3.0
28/06:00am 13.7 11.3 7.2 65 3.2 NNW 9 15 5 8 1004.7 1004.7 3.0
28/05:30am 14.3 12.1 7.7 64 3.3 NNW 9 15 5 8 1004.6 1004.6 3.0
28/05:00am 14.3 11.5 7.0 61 3.6 N 11 19 6 10 1004.3 1004.3 3.0
28/04:30am 14.2 12.2 7.1 62 3.5 E 7 13 4 7 1004.1 1004.1 3.0
28/04:00am 14.2 12.2 7.3 63 3.4 NNE 7 13 4 7 1003.8 1003.8 3.0
28/03:30am 14.5 12.5 7.0 60 3.7 N 7 13 4 7 1004.1 1004.1 3.0
28/03:00am 14.8 11.5 6.4 57 4.1 N 13 19 7 10 1004.1 1004.1 3.0
28/02:30am 14.9 11.6 6.2 56 4.2 N 13 20 7 11 1004.1 1004.1 3.0
28/02:00am 15.3 11.3 6.5 55 4.3 N 17 24 9 13 1004.1 1004.1 3.0
28/01:30am 15.5 11.4 6.0 53 4.6 N 17 24 9 13 1003.9 1003.9 3.0
28/01:00am 16.0 11.1 5.1 48 5.2 NNW 20 32 11 17 1004.0 1004.0 3.0
28/12:30am 15.9 11.2 5.3 49 5.1 NNW 19 35 10 19 1004.1 1004.1 3.0
28/12:00am 16.2 11.6 5.7 49 5.1 NNW 19 35 10 19 1004.0 1004.0 3.0
 
Date/Time
EDT
Temp
°C
App
Temp
°C
Dew
Point
°C
Rel
Hum
%
Delta-T
°C
Wind Press
QNH
hPa
Press
MSL
hPa
Rain since
9am
mm
Dir  Spd
km/h
Gust
km/h
Spd
kts
Gust
kts
27/11:30pm 16.6 12.3 5.4 47 5.4 NNW 17 26 9 14 1003.9 1003.9 3.0
27/11:00pm 16.6 13.7 6.5 51 5.0 NNW 11 17 6 9 1003.7 1003.7 3.0
27/10:30pm 17.0 12.8 5.7 47 5.5 NNW 17 35 9 19 1002.7 1002.6 3.0
27/10:00pm 17.0 12.2 5.5 46 5.6 NW 20 37 11 20 1002.4 1002.3 3.0
27/09:30pm 16.5 12.4 6.1 50 5.1 N 17 28 9 15 1002.4 1002.3 3.0
27/09:00pm 15.9 13.2 7.5 57 4.2 NNW 11 19 6 10 1002.0 1001.9 3.0
27/08:30pm 16.0 12.6 7.7 58 4.2 NNW 15 24 8 13 1001.7 1001.6 3.0
27/08:00pm 16.1 12.6 7.3 56 4.4 NW 15 26 8 14 1001.2 1001.1 3.0
27/07:30pm 16.3 11.4 6.8 53 4.7 NW 22 37 12 20 1000.6 1000.5 3.0
27/07:00pm 16.6 10.9 6.7 52 4.9 NW 26 44 14 24 999.8 999.7 3.0
27/06:30pm 16.6 9.6 7.0 53 4.8 NW 33 57 18 31 999.0 998.9 3.0
27/06:01pm 16.9 11.1 7.9 55 4.6 NW 28 54 15 29 998.7 998.6 3.0
27/06:00pm 16.9 11.5 8.1 56 4.5 NW 26 43 14 23 998.8 998.7 3.0
27/05:30pm 16.2 12.6 9.7 65 3.4 NW 19 32 10 17 999.3 999.2 3.0
27/05:00pm 15.4 9.3 9.9 70 2.9 NW 32 50 17 27 998.9 998.8 3.0
27/04:30pm 16.3 9.9 10.7 69 3.0 NNW 35 61 19 33 998.5 998.4 2.2
27/04:15pm 17.4 12.6 11.6 69 3.2 NW 28 76 15 41 997.9 997.8 1.2
27/04:14pm 17.5 13.1 11.7 69 3.2 NW 26 76 14 41 997.9 997.8 1.2
27/04:00pm 18.5 13.4 13.0 70 3.1 NW 32 54 17 29 998.2 998.1 0.4

Other Formats:

Comma delimited format used in spreadsheet applications
http://www.bom.gov.au/fwo/IDT60801/IDT60801.94970.axf

JavaScript Object Notation format (JSON) in row-major order
http://www.bom.gov.au/fwo/IDT60801/IDT60801.94970.json